createdAt,value
2023-09-19T00:00:51.083Z,13.00
2023-09-19T00:03:18.780Z,11.00
2023-09-19T00:05:47.249Z,11.00
2023-09-19T00:08:15.365Z,11.00
2023-09-19T00:10:43.965Z,8.40
2023-09-19T00:13:15.944Z,11.00
2023-09-19T00:15:56.768Z,11.00
2023-09-19T00:18:29.258Z,11.00
2023-09-19T00:21:00.372Z,11.00
2023-09-19T00:23:29.307Z,11.00
2023-09-19T00:26:00.255Z,11.00
2023-09-19T00:28:28.529Z,11.10
2023-09-19T00:30:56.479Z,11.10
2023-09-19T00:33:25.527Z,12.30
2023-09-19T00:35:54.369Z,11.20
2023-09-19T00:38:25.798Z,11.20
2023-09-19T00:40:54.673Z,11.20
2023-09-19T00:43:25.408Z,11.20
2023-09-19T00:45:55.887Z,9.20
2023-09-19T00:48:28.690Z,11.20
2023-09-19T00:51:01.137Z,11.20
2023-09-19T00:53:29.366Z,11.20
2023-09-19T00:55:57.458Z,11.10
2023-09-19T00:58:25.612Z,11.20
2023-09-19T01:00:54.416Z,11.20
2023-09-19T01:03:23.464Z,12.30
2023-09-19T01:05:51.265Z,11.20
2023-09-19T01:08:20.737Z,11.20
2023-09-19T01:10:56.742Z,11.20
2023-09-19T01:13:36.168Z,11.20
2023-09-19T01:16:22.531Z,11.10
2023-09-19T01:19:08.448Z,11.20
2023-09-19T01:21:56.358Z,11.20
2023-09-19T01:24:42.791Z,11.20
2023-09-19T01:27:32.101Z,10.70
2023-09-19T01:30:18.540Z,11.20
2023-09-19T01:32:47.660Z,11.20
2023-09-19T01:35:15.358Z,11.50
2023-09-19T01:37:44.786Z,13.70
2023-09-19T01:40:20.493Z,11.20
2023-09-19T01:42:56.998Z,11.30
2023-09-19T01:45:45.743Z,11.30
2023-09-19T01:48:22.076Z,11.30
2023-09-19T01:51:08.178Z,11.30
2023-09-19T01:53:58.565Z,11.40
2023-09-19T01:56:50.625Z,11.20
2023-09-19T01:59:24.217Z,14.30
2023-09-19T02:01:54.563Z,11.50
2023-09-19T02:04:22.315Z,8.90
2023-09-19T02:06:49.873Z,11.50
2023-09-19T02:09:17.681Z,11.50
2023-09-19T02:11:47.606Z,11.60
2023-09-19T02:14:16.152Z,9.00
2023-09-19T02:16:43.726Z,11.60
2023-09-19T02:19:11.408Z,11.70
2023-09-19T02:21:41.390Z,11.70
2023-09-19T02:24:11.461Z,11.70
2023-09-19T02:26:39.177Z,11.70
2023-09-19T02:29:08.249Z,11.70
2023-09-19T02:31:37.447Z,13.60
2023-09-19T02:34:06.448Z,11.90
2023-09-19T02:36:34.071Z,11.70
2023-09-19T02:39:01.649Z,11.70
2023-09-19T02:41:30.948Z,11.70
2023-09-19T02:44:00.199Z,11.70
2023-09-19T02:46:29.555Z,11.70
2023-09-19T02:48:57.169Z,12.50
2023-09-19T02:51:24.774Z,11.70
2023-09-19T02:53:53.755Z,11.70
2023-09-19T02:56:21.465Z,11.70
2023-09-19T02:58:49.546Z,14.20
2023-09-19T03:01:17.647Z,11.60
2023-09-19T03:03:46.183Z,11.60
2023-09-19T03:06:14.263Z,11.60
2023-09-19T03:08:43.275Z,9.00
2023-09-19T03:11:13.943Z,11.50
2023-09-19T03:13:45.355Z,11.50
2023-09-19T03:16:16.140Z,13.30
2023-09-19T03:18:44.293Z,11.30
2023-09-19T03:21:12.919Z,11.40
2023-09-19T03:23:42.483Z,11.40
2023-09-19T03:26:10.096Z,11.40
2023-09-19T03:28:37.940Z,11.40
2023-09-19T03:31:07.961Z,11.40
2023-09-19T03:33:38.851Z,11.40
2023-09-19T03:36:07.124Z,11.40
2023-09-19T03:38:35.768Z,11.40
2023-09-19T03:41:04.271Z,11.40
2023-09-19T03:43:33.535Z,11.40
2023-09-19T03:46:07.403Z,11.40
2023-09-19T03:48:35.921Z,11.40
2023-09-19T03:51:04.669Z,11.40
2023-09-19T03:53:33.008Z,11.40
2023-09-19T03:56:01.325Z,11.50
2023-09-19T03:58:29.937Z,11.50
2023-09-19T04:00:59.107Z,11.50
2023-09-19T04:03:36.102Z,10.60
2023-09-19T04:06:04.333Z,11.50
2023-09-19T04:08:31.941Z,11.60
2023-09-19T04:10:59.586Z,11.60
2023-09-19T04:13:27.732Z,11.60
2023-09-19T04:15:55.695Z,11.60
2023-09-19T04:18:24.732Z,8.70
2023-09-19T04:20:52.719Z,9.40
2023-09-19T04:23:23.256Z,11.60
2023-09-19T04:25:51.684Z,13.60
2023-09-19T04:28:19.962Z,9.50
2023-09-19T04:30:47.629Z,11.60
2023-09-19T04:33:15.853Z,14.50
2023-09-19T04:35:43.889Z,11.60
2023-09-19T04:38:11.576Z,11.70
2023-09-19T04:40:41.042Z,11.60
2023-09-19T04:43:08.865Z,11.60
2023-09-19T04:45:36.415Z,11.60
2023-09-19T04:48:04.356Z,11.70
2023-09-19T04:50:32.291Z,11.70
2023-09-19T04:53:00.265Z,11.70
2023-09-19T04:55:28.401Z,11.70
2023-09-19T04:57:56.345Z,11.70
2023-09-19T05:00:25.228Z,11.70
2023-09-19T05:02:55.280Z,11.70
2023-09-19T05:05:25.026Z,11.70
2023-09-19T05:07:54.654Z,11.70
2023-09-19T05:10:22.620Z,11.70
2023-09-19T05:12:52.972Z,11.70
2023-09-19T05:15:20.600Z,11.70
2023-09-19T05:17:58.405Z,11.80
2023-09-19T05:20:37.314Z,11.70
2023-09-19T05:23:10.118Z,11.80
2023-09-19T05:25:39.130Z,11.80
2023-09-19T05:28:08.776Z,11.80
2023-09-19T05:30:37.542Z,11.80
2023-09-19T05:33:06.484Z,11.90
2023-09-19T05:35:34.184Z,11.90
2023-09-19T05:38:01.768Z,11.90
2023-09-19T05:40:29.592Z,11.90
2023-09-19T05:42:57.271Z,11.90
2023-09-19T05:45:25.021Z,11.90
2023-09-19T05:47:57.152Z,12.00
2023-09-19T05:50:26.151Z,12.00
2023-09-19T05:52:57.346Z,12.00
2023-09-19T05:55:29.685Z,12.00
2023-09-19T05:57:57.465Z,12.10
2023-09-19T06:00:28.387Z,12.50
2023-09-19T06:02:58.735Z,12.10
2023-09-19T06:05:28.921Z,12.20
2023-09-19T06:07:56.660Z,12.20
2023-09-19T06:10:24.641Z,12.30
2023-09-19T06:12:52.476Z,12.30
2023-09-19T06:15:20.316Z,12.30
2023-09-19T06:17:49.813Z,12.30
2023-09-19T06:20:18.832Z,12.40
2023-09-19T06:22:47.125Z,12.50
2023-09-19T06:25:21.787Z,12.50
2023-09-19T06:27:54.813Z,12.50
2023-09-19T06:30:25.859Z,12.60
2023-09-19T06:32:57.904Z,10.00
2023-09-19T06:35:27.361Z,12.70
2023-09-19T06:37:55.239Z,12.80
2023-09-19T06:40:22.852Z,12.80
2023-09-19T06:42:55.059Z,12.90
2023-09-19T06:45:23.503Z,12.90
2023-09-19T06:47:53.156Z,13.00
2023-09-19T06:50:24.128Z,13.00
2023-09-19T06:52:58.029Z,13.10
2023-09-19T06:55:28.338Z,13.10
2023-09-19T06:57:56.015Z,13.20
2023-09-19T07:00:24.793Z,13.20
2023-09-19T07:03:01.871Z,13.30
2023-09-19T07:05:29.832Z,13.40
2023-09-19T07:07:59.286Z,13.40
2023-09-19T07:10:28.553Z,13.50
2023-09-19T07:12:57.885Z,13.50
2023-09-19T07:15:26.784Z,13.40
2023-09-19T07:17:55.355Z,13.60
2023-09-19T07:20:24.380Z,13.70
2023-09-19T07:22:52.108Z,13.70
2023-09-19T07:25:20.001Z,13.80
2023-09-19T07:27:47.657Z,13.80
2023-09-19T07:30:17.998Z,13.90
2023-09-19T07:32:45.803Z,14.00
2023-09-19T07:35:13.463Z,13.40
2023-09-19T07:37:41.119Z,14.10
2023-09-19T07:40:10.596Z,14.20
2023-09-19T07:42:40.047Z,14.30
2023-09-19T07:45:09.146Z,14.40
2023-09-19T07:47:37.529Z,14.40
2023-09-19T07:50:08.664Z,14.50
2023-09-19T07:52:36.515Z,14.50
2023-09-19T07:55:10.173Z,14.60
2023-09-19T07:57:38.504Z,14.60
2023-09-19T08:00:08.147Z,14.70
2023-09-19T08:02:41.163Z,15.60
2023-09-19T08:05:13.261Z,14.80
2023-09-19T08:07:42.440Z,14.80
2023-09-19T08:10:17.082Z,14.80
2023-09-19T08:12:49.324Z,14.90
2023-09-19T08:15:18.743Z,14.90
2023-09-19T08:17:47.357Z,14.90
2023-09-19T08:20:18.513Z,15.00
2023-09-19T08:22:53.546Z,15.00
2023-09-19T08:25:24.484Z,13.90
2023-09-19T08:27:52.570Z,15.10
2023-09-19T08:30:26.323Z,15.20
2023-09-19T08:33:05.762Z,15.40
2023-09-19T08:35:33.642Z,15.30
2023-09-19T08:38:05.443Z,15.30
2023-09-19T08:40:37.814Z,15.40
2023-09-19T08:43:05.504Z,15.40
2023-09-19T08:45:34.064Z,15.50
2023-09-19T08:48:30.783Z,15.50
2023-09-19T08:51:27.643Z,15.60
2023-09-19T08:54:08.766Z,15.60
2023-09-19T08:56:40.569Z,15.70
2023-09-19T08:59:14.678Z,15.80
2023-09-19T09:01:43.404Z,15.90
2023-09-19T09:04:14.591Z,15.90
2023-09-19T09:06:45.949Z,16.00
2023-09-19T09:09:13.826Z,17.80
2023-09-19T09:11:42.260Z,16.10
2023-09-19T09:14:10.263Z,16.30
2023-09-19T09:16:38.317Z,16.40
2023-09-19T09:19:06.370Z,16.40
2023-09-19T09:21:37.710Z,15.70
2023-09-19T09:24:34.880Z,16.70
2023-09-19T09:27:14.920Z,16.10
2023-09-19T09:29:53.928Z,16.80
2023-09-19T09:32:30.025Z,16.90
2023-09-19T09:35:02.006Z,17.00
2023-09-19T09:37:32.761Z,15.40
2023-09-19T09:40:17.499Z,17.10
2023-09-19T09:42:48.113Z,18.10
2023-09-19T09:45:34.797Z,17.30
2023-09-19T09:48:15.520Z,17.40
2023-09-19T09:50:50.204Z,16.20
2023-09-19T09:53:35.218Z,17.50
2023-09-19T09:56:15.022Z,17.50
2023-09-19T09:59:00.247Z,17.60
2023-09-19T10:01:32.322Z,17.70
2023-09-19T10:04:01.798Z,17.60
2023-09-19T10:06:49.567Z,17.70
2023-09-19T10:09:30.717Z,19.80
2023-09-19T10:12:09.808Z,17.80
2023-09-19T10:14:39.781Z,17.80
2023-09-19T10:17:10.989Z,17.80
2023-09-19T10:19:47.723Z,17.90
2023-09-19T10:22:17.716Z,17.00
2023-09-19T10:25:00.447Z,18.00
2023-09-19T10:27:38.292Z,18.00
2023-09-19T10:30:10.840Z,18.00
2023-09-19T10:32:42.220Z,18.00
2023-09-19T10:35:14.121Z,18.00
2023-09-19T10:37:44.345Z,18.00
2023-09-19T10:40:13.243Z,18.00
2023-09-19T10:42:43.533Z,18.00
2023-09-19T10:45:14.744Z,18.10
2023-09-19T10:47:42.681Z,17.20
2023-09-19T10:50:12.037Z,18.10
2023-09-19T10:52:43.567Z,18.10
2023-09-19T10:55:20.026Z,18.10
2023-09-19T10:57:49.466Z,18.00
2023-09-19T11:00:27.257Z,18.00
2023-09-19T11:03:13.311Z,18.00
2023-09-19T11:05:42.293Z,18.00
2023-09-19T11:08:10.870Z,18.00
2023-09-19T11:10:52.546Z,18.00
2023-09-19T11:13:39.325Z,18.00
2023-09-19T11:16:07.133Z,17.90
2023-09-19T11:18:44.733Z,17.90
2023-09-19T11:21:32.133Z,17.80
2023-09-19T11:24:12.120Z,17.80
2023-09-19T11:26:49.657Z,17.70
2023-09-19T11:29:31.994Z,17.50
2023-09-19T11:32:03.587Z,17.50
2023-09-19T11:34:37.626Z,17.40
2023-09-19T11:37:34.030Z,17.10
2023-09-19T11:40:17.615Z,17.30
2023-09-19T11:43:02.375Z,17.30
2023-09-19T11:45:47.365Z,17.20
2023-09-19T11:48:16.987Z,16.60
2023-09-19T11:50:48.479Z,17.30
2023-09-19T11:53:17.285Z,17.50
2023-09-19T11:55:46.430Z,17.30
2023-09-19T11:58:18.083Z,17.30
2023-09-19T12:00:46.713Z,17.40
2023-09-19T12:03:19.707Z,18.80
2023-09-19T12:05:48.477Z,17.40
2023-09-19T12:08:18.245Z,17.40
2023-09-19T12:10:50.023Z,17.80
2023-09-19T12:13:19.422Z,17.50
2023-09-19T12:15:49.182Z,17.60
2023-09-19T12:18:31.026Z,17.60
2023-09-19T12:20:59.580Z,17.60
2023-09-19T12:23:27.310Z,17.60
2023-09-19T12:25:58.754Z,17.70
2023-09-19T12:28:32.684Z,17.70
2023-09-19T12:31:08.844Z,18.40
2023-09-19T12:33:37.967Z,17.70
2023-09-19T12:36:30.012Z,17.80
2023-09-19T12:39:00.347Z,17.80
2023-09-19T12:41:28.376Z,17.90
2023-09-19T12:43:56.429Z,17.90
2023-09-19T12:46:27.359Z,17.90
2023-09-19T12:49:18.541Z,18.10
2023-09-19T12:51:50.567Z,18.30
2023-09-19T12:54:18.732Z,18.10
2023-09-19T12:56:48.921Z,18.20
2023-09-19T12:59:17.389Z,20.90
2023-09-19T13:01:47.517Z,18.70
2023-09-19T13:04:30.322Z,18.20
2023-09-19T13:07:02.240Z,18.70
2023-09-19T13:09:35.817Z,18.20
2023-09-19T13:12:04.953Z,18.30
2023-09-19T13:14:34.236Z,18.30
2023-09-19T13:17:05.981Z,18.30
2023-09-19T13:19:58.314Z,18.40
2023-09-19T13:22:55.699Z,18.40
2023-09-19T13:25:23.665Z,17.10
2023-09-19T13:27:55.082Z,18.40
2023-09-19T13:30:35.563Z,18.70
2023-09-19T13:33:11.621Z,18.30
2023-09-19T13:35:43.632Z,18.30
2023-09-19T13:38:13.147Z,18.30
2023-09-19T13:40:43.169Z,18.30
2023-09-19T13:43:12.558Z,18.30
2023-09-19T13:45:43.690Z,18.70
2023-09-19T13:48:14.004Z,19.20
2023-09-19T13:50:43.633Z,18.20
2023-09-19T13:53:11.787Z,18.20
2023-09-19T13:55:39.593Z,18.20
2023-09-19T13:58:08.667Z,18.30
2023-09-19T14:00:36.392Z,18.30
2023-09-19T14:03:05.672Z,18.40
2023-09-19T14:05:33.996Z,18.50
2023-09-19T14:08:02.158Z,18.50
2023-09-19T14:10:32.417Z,18.50
2023-09-19T14:13:00.743Z,18.50
2023-09-19T14:15:31.772Z,18.50
2023-09-19T14:18:01.796Z,18.60
2023-09-19T14:20:30.556Z,18.60
2023-09-19T14:23:00.062Z,18.60
2023-09-19T14:25:27.884Z,18.60
2023-09-19T14:27:55.412Z,18.60
2023-09-19T14:30:22.962Z,18.50
2023-09-19T14:32:50.671Z,18.50
2023-09-19T14:35:18.451Z,18.50
2023-09-19T14:37:46.828Z,18.50
2023-09-19T14:40:16.867Z,18.40
2023-09-19T14:42:46.228Z,18.40
2023-09-19T14:45:15.965Z,18.40
2023-09-19T14:47:43.853Z,18.30
2023-09-19T14:50:12.939Z,18.30
2023-09-19T14:52:40.995Z,18.20
2023-09-19T14:55:15.844Z,18.10
2023-09-19T14:57:47.141Z,18.00
2023-09-19T15:00:15.072Z,18.00
2023-09-19T15:02:42.925Z,17.90
2023-09-19T15:05:10.891Z,17.80
2023-09-19T15:07:39.228Z,18.00
2023-09-19T15:10:10.774Z,17.70
2023-09-19T15:12:39.221Z,17.70
2023-09-19T15:15:09.960Z,17.60
2023-09-19T15:17:38.389Z,19.70
2023-09-19T15:20:10.301Z,17.70
2023-09-19T15:22:38.044Z,17.90
2023-09-19T15:25:06.876Z,17.70
2023-09-19T15:27:34.620Z,17.70
2023-09-19T15:30:03.955Z,17.70
2023-09-19T15:32:32.332Z,17.60
2023-09-19T15:35:00.100Z,17.60
2023-09-19T15:37:27.833Z,17.50
2023-09-19T15:39:55.413Z,17.50
2023-09-19T15:42:23.055Z,17.40
2023-09-19T15:44:53.011Z,15.50
2023-09-19T15:47:21.450Z,15.80
2023-09-19T15:49:50.503Z,17.40
2023-09-19T15:52:19.624Z,16.50
2023-09-19T15:54:47.503Z,17.30
2023-09-19T15:57:15.310Z,17.30
2023-09-19T15:59:43.083Z,17.30
2023-09-19T16:02:10.674Z,17.30
2023-09-19T16:04:39.623Z,17.20
2023-09-19T16:07:07.924Z,17.20
2023-09-19T16:09:36.541Z,17.20
2023-09-19T16:12:04.561Z,17.10
2023-09-19T16:14:32.509Z,17.00
2023-09-19T16:17:01.130Z,18.90
2023-09-19T16:19:28.988Z,16.90
2023-09-19T16:21:57.030Z,16.90
2023-09-19T16:24:25.201Z,16.90
2023-09-19T16:26:54.059Z,15.60
2023-09-19T16:29:25.501Z,16.90
2023-09-19T16:31:53.781Z,16.90
2023-09-19T16:34:21.469Z,17.90
2023-09-19T16:36:49.208Z,17.10
2023-09-19T16:39:16.821Z,17.10
2023-09-19T16:41:44.441Z,17.10
2023-09-19T16:44:14.614Z,17.20
2023-09-19T16:46:42.849Z,17.20
2023-09-19T16:49:10.565Z,16.10
2023-09-19T16:51:39.018Z,17.30
2023-09-19T16:54:06.816Z,17.30
2023-09-19T16:56:37.904Z,17.30
2023-09-19T16:59:07.083Z,17.10
2023-09-19T17:01:36.478Z,17.40
2023-09-19T17:04:04.925Z,17.40
2023-09-19T17:06:32.654Z,17.40
2023-09-19T17:09:00.578Z,17.40
2023-09-19T17:11:28.239Z,17.40
2023-09-19T17:13:58.239Z,17.40
2023-09-19T17:16:30.206Z,17.40
2023-09-19T17:18:58.735Z,17.40
2023-09-19T17:21:27.738Z,15.80
2023-09-19T17:26:27.606Z,17.40
2023-09-19T17:28:55.562Z,17.40
2023-09-19T17:31:25.623Z,17.40
2023-09-19T17:33:55.064Z,17.30
2023-09-19T17:36:24.698Z,17.10
2023-09-19T17:38:54.742Z,15.50
2023-09-19T17:41:23.709Z,17.90
2023-09-19T17:43:56.642Z,16.70
2023-09-19T17:46:26.997Z,16.70
2023-09-19T17:48:59.825Z,16.60
2023-09-19T17:51:28.393Z,16.60
2023-09-19T17:54:01.222Z,18.30
2023-09-19T17:56:30.163Z,16.50
2023-09-19T17:58:59.121Z,16.50
2023-09-19T18:01:33.608Z,16.60
2023-09-19T18:04:03.378Z,16.60
2023-09-19T18:06:34.661Z,16.60
2023-09-19T18:09:08.463Z,16.60
2023-09-19T18:11:36.762Z,16.60
2023-09-19T18:14:04.743Z,16.20
2023-09-19T18:16:33.497Z,16.60
2023-09-19T18:19:03.775Z,16.60
2023-09-19T18:21:34.193Z,18.00
2023-09-19T18:24:05.391Z,16.60
2023-09-19T18:26:34.649Z,16.60
2023-09-19T18:29:02.556Z,16.60
2023-09-19T18:31:30.335Z,16.10
2023-09-19T18:33:58.574Z,16.60
2023-09-19T18:36:29.396Z,17.10
2023-09-19T18:38:57.518Z,16.60
2023-09-19T18:41:25.353Z,16.60
2023-09-19T18:43:52.994Z,16.60
2023-09-19T18:46:20.692Z,16.60
2023-09-19T18:48:49.105Z,16.60
2023-09-19T18:51:19.143Z,16.60
2023-09-19T18:53:57.013Z,16.70
2023-09-19T18:56:33.412Z,16.60
2023-09-19T18:59:01.067Z,16.60
2023-09-19T19:01:28.787Z,16.60
2023-09-19T19:03:56.497Z,16.60
2023-09-19T19:06:24.173Z,16.60
2023-09-19T19:08:54.854Z,16.60
2023-09-19T19:11:23.597Z,16.60
2023-09-19T19:13:55.687Z,16.60
2023-09-19T19:16:25.260Z,16.60
2023-09-19T19:18:53.754Z,16.60
2023-09-19T19:21:21.652Z,16.50
2023-09-19T19:23:51.535Z,16.50
2023-09-19T19:26:22.773Z,16.50
2023-09-19T19:28:50.884Z,16.40
2023-09-19T19:31:18.947Z,16.40
2023-09-19T19:33:46.761Z,16.40
2023-09-19T19:36:16.101Z,16.00
2023-09-19T19:38:47.592Z,16.30
2023-09-19T19:41:15.455Z,16.30
2023-09-19T19:43:44.249Z,16.30
2023-09-19T19:46:12.050Z,16.30
2023-09-19T19:48:39.850Z,16.30
2023-09-19T19:51:08.884Z,16.30
2023-09-19T19:53:39.260Z,16.20
2023-09-19T19:57:03.291Z,16.30
2023-09-19T19:59:31.054Z,16.30
2023-09-19T20:01:58.740Z,16.30
2023-09-19T20:04:28.395Z,16.30
2023-09-19T20:06:56.490Z,16.30
2023-09-19T20:09:24.247Z,16.30
2023-09-19T20:11:51.852Z,16.80
2023-09-19T20:14:19.510Z,16.40
2023-09-19T20:16:47.418Z,16.30
2023-09-19T20:19:16.039Z,16.40
2023-09-19T20:21:43.730Z,16.50
2023-09-19T20:24:13.426Z,16.40
2023-09-19T20:26:41.419Z,16.40
2023-09-19T20:29:09.583Z,16.40
2023-09-19T20:31:38.618Z,16.40
2023-09-19T20:34:06.392Z,16.20
2023-09-19T20:36:34.039Z,16.40
2023-09-19T20:39:02.400Z,16.40
2023-09-19T20:41:30.083Z,14.80
2023-09-19T20:43:57.661Z,16.30
2023-09-19T20:46:25.426Z,16.30
2023-09-19T20:48:53.454Z,16.20
2023-09-19T20:51:26.778Z,16.20
2023-09-19T20:53:55.033Z,16.20
2023-09-19T20:56:22.648Z,16.20
2023-09-19T20:58:51.190Z,16.30
2023-09-19T21:01:20.776Z,16.10
2023-09-19T21:03:49.240Z,16.10
2023-09-19T21:06:16.875Z,16.10
2023-09-19T21:08:44.688Z,16.00
2023-09-19T21:11:17.437Z,16.00
2023-09-19T21:13:46.921Z,16.00
2023-09-19T21:16:16.140Z,16.00
2023-09-19T21:18:45.767Z,16.00
2023-09-19T21:21:14.188Z,17.50
2023-09-19T21:23:44.831Z,16.10
2023-09-19T21:26:14.912Z,16.10
2023-09-19T21:28:45.109Z,16.10
2023-09-19T21:31:15.647Z,16.10
2023-09-19T21:33:43.714Z,16.00
2023-09-19T21:36:15.404Z,16.00
2023-09-19T21:38:43.265Z,14.50
2023-09-19T21:41:13.238Z,15.90
2023-09-19T21:43:41.451Z,16.10
2023-09-19T21:46:09.699Z,16.10
2023-09-19T21:48:37.399Z,16.10
2023-09-19T21:51:07.817Z,16.40
2023-09-19T21:53:37.102Z,15.70
2023-09-19T21:56:06.882Z,16.10
2023-09-19T21:58:38.348Z,16.10
2023-09-19T22:01:09.761Z,16.10
2023-09-19T22:03:41.820Z,16.20
2023-09-19T22:06:11.490Z,16.20
2023-09-19T22:08:39.659Z,16.10
2023-09-19T22:11:12.015Z,16.20
2023-09-19T22:13:43.352Z,16.20
2023-09-19T22:16:15.584Z,16.20
2023-09-19T22:18:48.547Z,16.20
2023-09-19T22:21:23.726Z,16.20
2023-09-19T22:23:54.098Z,16.20
2023-09-19T22:26:24.028Z,16.20
2023-09-19T22:28:54.585Z,16.20
2023-09-19T22:31:24.726Z,16.20
2023-09-19T22:33:55.927Z,16.20
2023-09-19T22:36:32.157Z,16.30
2023-09-19T22:39:04.935Z,16.30
2023-09-19T22:41:33.864Z,16.30
2023-09-19T22:44:01.733Z,15.80
2023-09-19T22:46:29.687Z,16.20
2023-09-19T22:48:58.228Z,16.20
2023-09-19T22:51:37.439Z,16.20
2023-09-19T22:54:12.272Z,16.10
2023-09-19T22:56:41.326Z,16.10
2023-09-19T22:59:09.611Z,16.10
2023-09-19T23:01:41.777Z,16.40
2023-09-19T23:04:12.987Z,16.10
2023-09-19T23:06:44.744Z,16.10
2023-09-19T23:09:32.555Z,16.10
2023-09-19T23:12:04.235Z,16.10
2023-09-19T23:14:42.396Z,16.00
2023-09-19T23:17:14.812Z,14.70
2023-09-19T23:19:43.909Z,16.00
2023-09-19T23:22:24.313Z,16.00
2023-09-19T23:25:07.670Z,16.10
2023-09-19T23:27:37.182Z,16.60
2023-09-19T23:30:09.639Z,16.10
2023-09-19T23:32:37.465Z,16.20
2023-09-19T23:35:05.668Z,13.70
2023-09-19T23:37:33.426Z,16.20
2023-09-19T23:40:02.122Z,16.20
2023-09-19T23:42:30.208Z,16.30
2023-09-19T23:44:59.280Z,16.30
2023-09-19T23:47:27.712Z,18.20
2023-09-19T23:49:55.413Z,16.40
2023-09-19T23:52:23.208Z,16.40
2023-09-19T23:54:51.906Z,16.40
2023-09-19T23:57:22.951Z,16.40
2023-09-19T23:59:50.938Z,16.50
